Time;durP1;ratioP1;P1;durP2;ratioP2;P2;SDS_P1;SDS_P2;PMS_P1;PMS_P2;Temp;Humidity;BMP_temperature;BMP_pressure;BME280_temperature;BME280_humidity;BME280_pressure;Samples;Min_cycle;Max_cycle;Signal;HPM_P1;HPM_P2
2021/04/17 00:00:50;;;;;;;12.52;4.82;;;4.50;80.00;;;;;;5012403;28;20045;-53
2021/04/17 00:03:16;;;;;;;15.80;5.40;;;4.50;80.50;;;;;;5006321;28;20702;-54
2021/04/17 00:05:42;;;;;;;10.82;3.88;;;4.50;80.40;;;;;;5012588;28;20125;-53
2021/04/17 00:08:07;;;;;;;11.95;4.72;;;4.50;80.50;;;;;;5007968;28;20038;-54
2021/04/17 00:10:33;;;;;;;10.82;4.60;;;4.40;80.60;;;;;;5006813;28;20088;-54
2021/04/17 00:12:59;;;;;;;11.68;4.43;;;4.40;80.60;;;;;;5011196;28;20050;-55
2021/04/17 00:15:25;;;;;;;10.23;4.38;;;4.40;81.10;;;;;;5003884;28;20057;-56
2021/04/17 00:17:50;;;;;;;8.82;4.10;;;4.30;81.40;;;;;;5010003;28;20037;-53
2021/04/17 00:20:16;;;;;;;12.30;4.53;;;4.30;81.00;;;;;;5007669;28;20053;-53
2021/04/17 00:22:42;;;;;;;10.32;4.30;;;4.30;81.50;;;;;;5001719;28;20104;-53
2021/04/17 00:25:08;;;;;;;13.52;5.10;;;4.30;81.50;;;;;;5011365;28;20046;-54
2021/04/17 00:27:34;;;;;;;10.20;4.78;;;4.30;81.70;;;;;;5009986;28;20082;-54
2021/04/17 00:29:59;;;;;;;15.10;4.80;;;4.40;82.30;;;;;;5010594;28;20087;-54
2021/04/17 00:32:25;;;;;;;14.07;4.72;;;4.30;82.20;;;;;;5005242;28;20415;-54
2021/04/17 00:34:50;;;;;;;11.43;4.57;;;4.30;82.40;;;;;;4991483;28;20125;-52
2021/04/17 00:37:16;;;;;;;14.35;4.78;;;4.30;82.50;;;;;;5007451;28;20120;-54
2021/04/17 00:39:42;;;;;;;10.52;4.32;;;4.30;82.30;;;;;;5016893;28;20440;-51
2021/04/17 00:42:08;;;;;;;12.88;5.00;;;4.20;82.60;;;;;;5014701;28;20136;-54
2021/04/17 00:44:35;;;;;;;10.50;4.70;;;4.20;82.80;;;;;;5010611;28;20506;-54
2021/04/17 00:47:03;;;;;;;10.50;4.85;;;4.20;82.90;;;;;;5004670;28;20041;-52
2021/04/17 00:49:30;;;;;;;14.75;4.80;;;4.20;82.80;;;;;;5010464;28;20049;-54
2021/04/17 00:51:55;;;;;;;8.98;4.50;;;4.20;83.20;;;;;;5010417;28;20076;-50
2021/04/17 00:54:21;;;;;;;10.93;4.47;;;4.10;83.50;;;;;;5010368;28;20069;-52
2021/04/17 00:56:47;;;;;;;11.52;4.53;;;4.10;84.10;;;;;;5008805;28;20084;-54
2021/04/17 00:59:12;;;;;;;12.55;4.43;;;4.10;83.40;;;;;;4999132;28;20038;-54
2021/04/17 01:01:38;;;;;;;13.27;5.05;;;4.00;84.20;;;;;;4998694;28;20046;-54
2021/04/17 01:04:22;;;;;;;11.70;5.15;;;4.00;84.10;;;;;;5009129;28;20033;-54
2021/04/17 01:07:18;;;;;;;13.25;4.65;;;4.00;84.30;;;;;;4990468;28;526054;-54
2021/04/17 01:10:00;;;;;;;11.23;5.00;;;3.90;84.80;;;;;;5003442;28;20037;-54
2021/04/17 01:12:30;;;;;;;12.38;5.20;;;3.90;84.70;;;;;;5011363;28;20046;-52
2021/04/17 01:14:57;;;;;;;12.45;5.20;;;4.00;84.10;;;;;;5004800;28;20042;-50
2021/04/17 01:17:24;;;;;;;12.02;5.00;;;4.00;84.70;;;;;;5009329;28;20100;-54
2021/04/17 01:20:00;;;;;;;16.17;5.40;;;3.90;85.10;;;;;;5010612;28;20088;-55
2021/04/17 01:22:26;;;;;;;12.98;5.40;;;3.90;85.00;;;;;;5010741;28;20116;-54
2021/04/17 01:25:13;;;;;;;15.55;5.20;;;3.90;85.00;;;;;;5011162;28;20096;-50
2021/04/17 01:27:40;;;;;;;15.05;5.95;;;3.90;85.40;;;;;;5003313;28;20049;-53
2021/04/17 01:30:14;;;;;;;12.45;6.00;;;3.90;86.00;;;;;;5009051;28;20038;-52
2021/04/17 01:32:42;;;;;;;11.68;5.30;;;3.90;85.50;;;;;;5002200;28;20410;-53
2021/04/17 01:35:11;;;;;;;12.40;5.32;;;3.90;86.70;;;;;;5010891;28;20437;-53
2021/04/17 01:37:53;;;;;;;17.15;5.57;;;3.90;86.40;;;;;;5009953;28;20034;-53
2021/04/17 01:40:21;;;;;;;;;;;3.90;88.60;;;;;;5008457;28;20046;-50
2021/04/17 01:42:47;;;;;;;13.70;5.60;;;3.90;87.20;;;;;;5010715;28;19921;-51
2021/04/17 01:45:18;;;;;;;14.43;5.68;;;3.90;86.50;;;;;;5008637;28;20507;-52
2021/04/17 01:47:45;;;;;;;15.02;6.70;;;3.90;87.90;;;;;;5000535;28;20125;-52
2021/04/17 01:50:13;;;;;;;15.60;6.18;;;3.90;87.00;;;;;;5005876;28;20041;-52
2021/04/17 01:52:42;;;;;;;14.55;5.63;;;3.90;86.90;;;;;;4992584;28;20046;-55
2021/04/17 01:55:09;;;;;;;13.80;5.50;;;3.80;87.00;;;;;;5009941;28;20501;-54
2021/04/17 01:57:36;;;;;;;13.93;5.68;;;3.80;87.00;;;;;;5007795;28;20046;-53
2021/04/17 02:00:04;;;;;;;14.45;5.90;;;3.90;87.20;;;;;;5018102;28;20042;-54
2021/04/17 02:02:30;;;;;;;17.20;5.95;;;3.80;87.40;;;;;;5010253;28;20034;-54
2021/04/17 02:04:55;;;;;;;13.40;6.13;;;3.90;87.30;;;;;;5009597;28;20060;-57
2021/04/17 02:07:21;;;;;;;16.73;6.18;;;3.90;87.30;;;;;;5009585;28;20042;-54
2021/04/17 02:09:46;;;;;;;13.05;6.35;;;3.90;88.30;;;;;;5008424;28;20079;-54
2021/04/17 02:12:12;;;;;;;15.43;6.25;;;3.90;88.10;;;;;;4990582;28;20041;-53
2021/04/17 02:14:38;;;;;;;12.73;6.28;;;3.90;88.10;;;;;;5003957;28;20053;-55
2021/04/17 02:17:08;;;;;;;17.98;5.97;;;3.90;88.00;;;;;;5008489;28;20133;-55
2021/04/17 02:19:47;;;;;;;15.98;6.30;;;3.90;87.90;;;;;;5010197;28;20567;-54
2021/04/17 02:22:14;;;;;;;12.82;5.72;;;3.80;88.20;;;;;;5002660;28;20034;-54
2021/04/17 02:24:40;;;;;;;17.58;5.93;;;3.80;87.70;;;;;;5001430;28;20113;-54
2021/04/17 02:27:06;;;;;;;12.20;5.57;;;3.90;88.00;;;;;;5004868;28;20108;-53
2021/04/17 02:29:33;;;;;;;14.98;5.68;;;3.90;87.80;;;;;;4991049;28;20260;-54
2021/04/17 02:31:59;;;;;;;14.38;6.43;;;3.90;88.30;;;;;;4998852;28;20042;-52
2021/04/17 02:34:26;;;;;;;12.38;6.05;;;3.90;87.60;;;;;;5001502;28;20084;-54
2021/04/17 02:36:51;;;;;;;14.52;5.60;;;3.90;88.20;;;;;;5009760;28;20041;-51
2021/04/17 02:39:17;;;;;;;17.15;5.82;;;3.90;88.10;;;;;;5014993;28;20045;-53
2021/04/17 02:41:43;;;;;;;10.25;5.35;;;3.90;88.40;;;;;;5010341;28;20446;-54
2021/04/17 02:44:09;;;;;;;11.98;5.75;;;3.90;88.40;;;;;;5006602;28;20078;-56
2021/04/17 02:46:34;;;;;;;11.15;5.55;;;3.90;88.20;;;;;;5007863;28;20065;-55
2021/04/17 02:49:00;;;;;;;12.82;5.38;;;3.80;88.10;;;;;;5009132;28;20038;-54
2021/04/17 02:51:26;;;;;;;15.00;5.65;;;3.80;87.90;;;;;;5025132;28;20315;-54
2021/04/17 02:53:52;;;;;;;11.95;5.30;;;3.90;87.90;;;;;;5001134;28;20057;-52
2021/04/17 02:56:18;;;;;;;11.73;5.32;;;3.80;87.70;;;;;;4998054;28;20050;-54
2021/04/17 02:58:44;;;;;;;9.55;4.63;;;3.80;87.60;;;;;;5007325;28;20091;-51
2021/04/17 03:01:10;;;;;;;13.27;5.50;;;3.80;87.50;;;;;;5007006;28;20438;-51
2021/04/17 03:03:35;;;;;;;12.05;5.55;;;3.80;87.60;;;;;;5001438;28;20080;-54
2021/04/17 03:06:01;;;;;;;9.60;4.93;;;3.80;87.60;;;;;;5002846;28;20038;-54
2021/04/17 03:08:26;;;;;;;12.52;5.80;;;3.70;87.40;;;;;;5012079;28;20129;-54
2021/04/17 03:10:52;;;;;;;9.85;5.18;;;3.70;87.30;;;;;;5012821;28;20076;-54
2021/04/17 03:13:18;;;;;;;11.95;5.38;;;3.70;87.20;;;;;;5015214;28;20041;-55
2021/04/17 03:15:44;;;;;;;13.85;5.50;;;3.70;87.50;;;;;;4979870;28;20042;-54
2021/04/17 03:18:10;;;;;;;14.38;5.22;;;3.70;87.80;;;;;;5012775;28;20037;-53
2021/04/17 03:20:37;;;;;;;10.32;4.57;;;3.70;87.80;;;;;;5012329;28;20108;-52
2021/04/17 03:23:03;;;;;;;9.95;4.55;;;3.70;87.90;;;;;;5012910;28;20046;-50
2021/04/17 03:25:28;;;;;;;12.43;4.90;;;3.70;87.50;;;;;;5010179;28;20072;-53
2021/04/17 03:27:55;;;;;;;14.57;5.35;;;3.60;87.70;;;;;;5004672;28;20467;-52
2021/04/17 03:30:28;;;;;;;8.65;4.70;;;3.60;87.80;;;;;;5015739;28;20048;-51
2021/04/17 03:32:58;;;;;;;14.38;5.35;;;3.60;87.80;;;;;;5012018;28;20051;-54
2021/04/17 03:35:24;;;;;;;12.60;5.30;;;3.60;87.70;;;;;;5013840;28;20069;-50
2021/04/17 03:37:50;;;;;;;10.60;5.28;;;3.60;87.90;;;;;;5012079;28;20042;-50
2021/04/17 03:40:17;;;;;;;9.95;5.30;;;3.60;87.80;;;;;;5014174;28;20116;-51
2021/04/17 03:42:43;;;;;;;13.25;5.95;;;3.50;87.80;;;;;;5012482;28;20034;-49
2021/04/17 03:45:10;;;;;;;13.02;5.82;;;3.60;88.00;;;;;;5012223;28;20078;-50
2021/04/17 03:47:37;;;;;;;14.15;5.47;;;3.60;88.20;;;;;;5013668;28;20077;-51
2021/04/17 03:50:05;;;;;;;12.35;5.43;;;3.50;88.50;;;;;;5012552;28;20040;-50
2021/04/17 03:52:30;;;;;;;14.43;5.38;;;3.50;88.40;;;;;;5009326;28;20081;-50
2021/04/17 03:54:56;;;;;;;12.02;5.53;;;3.40;88.60;;;;;;5011911;28;20061;-50
2021/04/17 03:57:22;;;;;;;11.20;5.60;;;3.40;88.70;;;;;;5012199;28;20520;-54
2021/04/17 03:59:47;;;;;;;12.50;5.82;;;3.40;88.80;;;;;;5011783;28;20042;-50
2021/04/17 04:02:14;;;;;;;16.00;5.47;;;3.40;89.00;;;;;;5012745;28;20500;-50
2021/04/17 04:04:39;;;;;;;11.52;5.30;;;3.30;88.90;;;;;;5007407;28;20070;-52
2021/04/17 04:07:05;;;;;;;11.93;5.10;;;3.40;88.90;;;;;;5007763;28;20061;-49
2021/04/17 04:09:31;;;;;;;10.63;5.45;;;3.30;88.80;;;;;;5011955;28;20034;-50
2021/04/17 04:11:57;;;;;;;11.02;5.45;;;3.30;89.10;;;;;;5012699;28;20505;-51
2021/04/17 04:14:24;;;;;;;10.13;5.07;;;3.30;89.00;;;;;;5011990;28;20125;-50
2021/04/17 04:16:50;;;;;;;12.70;5.05;;;3.30;89.00;;;;;;5010129;28;20038;-49
2021/04/17 04:19:15;;;;;;;14.93;5.43;;;3.30;89.60;;;;;;5007399;28;20399;-51
2021/04/17 04:21:42;;;;;;;14.27;5.10;;;3.20;89.30;;;;;;5012627;28;20057;-49
2021/04/17 04:24:09;;;;;;;10.90;4.93;;;3.20;89.50;;;;;;5011604;28;20386;-49
2021/04/17 04:26:35;;;;;;;12.38;4.65;;;3.20;89.60;;;;;;5007614;28;20052;-52
2021/04/17 04:29:01;;;;;;;10.35;5.00;;;3.20;89.60;;;;;;5011465;28;20034;-51
2021/04/17 04:31:27;;;;;;;18.63;5.65;;;3.20;89.80;;;;;;5009788;28;20057;-51
2021/04/17 04:33:52;;;;;;;20.25;5.97;;;3.10;89.80;;;;;;5010163;28;20056;-49
2021/04/17 04:36:18;;;;;;;11.63;4.45;;;3.10;89.30;;;;;;5010178;28;20612;-48
2021/04/17 04:38:43;;;;;;;12.18;5.25;;;3.10;89.80;;;;;;5009893;28;20044;-49
2021/04/17 04:41:09;;;;;;;11.35;5.07;;;3.20;90.00;;;;;;5001558;28;20388;-52
2021/04/17 04:43:34;;;;;;;18.73;5.45;;;3.20;89.80;;;;;;5005053;28;20038;-49
2021/04/17 04:46:00;;;;;;;12.38;5.25;;;3.20;90.00;;;;;;5009546;28;20069;-51
2021/04/17 04:48:26;;;;;;;12.38;5.38;;;3.20;89.90;;;;;;4998766;28;20038;-48
2021/04/17 04:50:51;;;;;;;12.52;4.72;;;3.20;89.90;;;;;;4999927;28;20379;-51
2021/04/17 04:53:17;;;;;;;15.15;5.32;;;3.20;89.90;;;;;;5010239;28;20092;-52
2021/04/17 04:55:43;;;;;;;7.63;4.60;;;3.20;90.00;;;;;;5001911;28;20133;-51
2021/04/17 04:58:08;;;;;;;13.68;5.07;;;3.10;90.00;;;;;;5009300;28;20077;-49
2021/04/17 05:00:34;;;;;;;13.38;5.20;;;3.20;90.30;;;;;;5021341;28;20503;-49
2021/04/17 05:03:00;;;;;;;12.63;5.20;;;3.20;90.10;;;;;;5004930;28;20117;-50
2021/04/17 05:05:25;;;;;;;14.30;5.05;;;3.20;90.20;;;;;;5010647;28;20133;-51
2021/04/17 05:07:51;;;;;;;11.15;5.70;;;3.20;90.30;;;;;;5010337;28;20069;-48
2021/04/17 05:10:17;;;;;;;14.27;5.13;;;3.20;90.10;;;;;;5011741;28;20483;-50
2021/04/17 05:12:42;;;;;;;13.93;4.90;;;3.20;90.00;;;;;;5005417;28;20045;-53
2021/04/17 05:15:09;;;;;;;15.82;4.80;;;3.20;90.20;;;;;;5005793;28;20053;-50
2021/04/17 05:17:35;;;;;;;12.45;5.10;;;3.20;90.20;;;;;;4989792;28;20410;-50
2021/04/17 05:20:00;;;;;;;9.70;5.00;;;3.20;90.30;;;;;;5001896;28;20034;-50
2021/04/17 05:22:26;;;;;;;11.85;5.18;;;3.30;90.40;;;;;;5010122;28;20404;-52
2021/04/17 05:24:52;;;;;;;13.10;4.95;;;3.30;90.40;;;;;;5011237;28;20072;-51
2021/04/17 05:27:18;;;;;;;11.32;4.75;;;3.40;90.30;;;;;;5009570;28;20080;-52
2021/04/17 05:29:44;;;;;;;11.48;4.80;;;3.40;89.80;;;;;;5010275;28;20096;-50
2021/04/17 05:32:10;;;;;;;10.45;4.70;;;3.60;89.60;;;;;;5008285;28;20045;-52
2021/04/17 05:34:37;;;;;;;13.02;4.55;;;3.80;90.00;;;;;;5011517;28;20417;-52
2021/04/17 05:37:02;;;;;;;14.40;4.57;;;4.00;89.90;;;;;;5008465;28;20476;-51
2021/04/17 05:39:28;;;;;;;10.98;4.65;;;4.10;89.20;;;;;;5010700;28;20073;-51
2021/04/17 05:41:55;;;;;;;17.15;4.57;;;4.20;89.20;;;;;;5009904;28;20042;-51
2021/04/17 05:44:21;;;;;;;16.10;5.18;;;4.30;89.00;;;;;;5010264;28;20034;-51
2021/04/17 05:46:47;;;;;;;12.52;4.20;;;4.50;88.70;;;;;;5006626;28;20388;-51
2021/04/17 05:49:12;;;;;;;14.38;4.38;;;4.80;87.70;;;;;;4996895;28;20511;-53
2021/04/17 05:51:41;;;;;;;13.60;4.50;;;5.20;86.70;;;;;;5003884;28;20572;-51
2021/04/17 05:54:08;;;;;;;10.25;3.78;;;5.70;84.60;;;;;;5003275;28;20057;-50
2021/04/17 05:56:33;;;;;;;13.38;3.90;;;6.10;82.10;;;;;;5005900;28;20034;-51
2021/04/17 05:58:59;;;;;;;11.85;4.00;;;6.30;81.60;;;;;;4995436;28;20117;-50
2021/04/17 06:01:25;;;;;;;8.45;3.80;;;6.60;80.70;;;;;;5008297;28;20099;-50
2021/04/17 06:03:51;;;;;;;8.82;3.70;;;6.80;79.80;;;;;;5010702;28;20038;-51
2021/04/17 06:06:17;;;;;;;13.63;4.07;;;6.70;79.70;;;;;;5009303;28;20053;-54
2021/04/17 06:08:43;;;;;;;11.13;3.78;;;6.90;79.70;;;;;;5010920;28;20049;-54
2021/04/17 06:11:09;;;;;;;13.07;3.60;;;6.90;80.10;;;;;;5009292;28;20050;-52
2021/04/17 06:13:34;;;;;;;10.45;3.88;;;7.10;80.20;;;;;;4998275;28;20042;-50
2021/04/17 06:16:05;;;;;;;10.60;3.40;;;7.10;80.00;;;;;;5006697;28;20048;-50
2021/04/17 06:18:32;;;;;;;13.75;3.72;;;7.10;80.70;;;;;;5002372;28;20070;-52
2021/04/17 06:20:58;;;;;;;10.88;4.15;;;7.30;80.30;;;;;;5008757;28;20045;-52
2021/04/17 06:23:24;;;;;;;15.18;3.90;;;7.50;79.60;;;;;;5002505;28;20054;-53
2021/04/17 06:25:50;;;;;;;14.88;5.18;;;7.50;79.90;;;;;;5006856;28;20450;-54
2021/04/17 06:28:17;;;;;;;16.48;3.80;;;7.70;79.70;;;;;;5007368;28;20421;-53
2021/04/17 06:30:43;;;;;;;11.98;4.07;;;7.50;80.10;;;;;;5008581;28;20754;-53
2021/04/17 06:33:09;;;;;;;11.52;4.20;;;7.40;81.10;;;;;;5002707;28;20133;-53
2021/04/17 06:35:36;;;;;;;13.70;4.13;;;7.30;82.20;;;;;;5009838;28;20038;-54
2021/04/17 06:38:02;;;;;;;15.93;5.10;;;7.30;83.50;;;;;;5016096;28;20041;-53
2021/04/17 06:40:28;;;;;;;12.43;3.97;;;7.30;83.50;;;;;;5010023;28;20779;-53
2021/04/17 06:42:57;;;;;;;16.08;4.32;;;7.30;83.90;;;;;;5009018;28;20064;-54
2021/04/17 06:45:23;;;;;;;20.40;4.88;;;7.20;84.30;;;;;;5006147;28;20053;-54
2021/04/17 06:47:49;;;;;;;14.88;3.53;;;7.30;84.50;;;;;;4989571;28;20109;-54
2021/04/17 06:50:15;;;;;;;14.30;3.67;;;7.40;84.80;;;;;;4978825;28;20549;-55
2021/04/17 06:52:41;;;;;;;16.52;4.20;;;7.40;84.80;;;;;;4992492;28;20490;-54
2021/04/17 06:55:09;;;;;;;14.30;4.22;;;7.40;84.80;;;;;;5009701;28;20041;-55
2021/04/17 06:57:35;;;;;;;16.65;3.97;;;7.50;84.90;;;;;;5009214;28;20089;-54
2021/04/17 07:00:13;;;;;;;17.60;4.45;;;7.60;85.50;;;;;;5011292;28;20451;-54
2021/04/17 07:02:39;;;;;;;14.68;3.83;;;7.80;84.50;;;;;;5012018;28;20121;-52
2021/04/17 07:05:06;;;;;;;14.00;3.72;;;7.80;84.40;;;;;;5009262;28;20509;-55
2021/04/17 07:07:32;;;;;;;17.15;3.83;;;7.80;84.60;;;;;;5010499;28;20042;-51
2021/04/17 07:09:58;;;;;;;16.17;4.45;;;7.90;84.80;;;;;;5008683;28;20041;-54
2021/04/17 07:12:24;;;;;;;28.30;4.97;;;7.90;84.60;;;;;;4987292;28;20049;-55
2021/04/17 07:14:52;;;;;;;17.42;4.22;;;8.00;84.10;;;;;;4987223;28;20168;-53
2021/04/17 07:17:19;;;;;;;20.33;4.47;;;8.00;84.60;;;;;;5002876;28;20645;-54
2021/04/17 07:19:59;;;;;;;20.23;4.35;;;8.20;83.00;;;;;;5010479;28;20042;-53
2021/04/17 07:22:28;;;;;;;14.88;4.07;;;8.10;81.30;;;;;;5007016;28;20033;-53
2021/04/17 07:24:59;;;;;;;17.85;4.07;;;8.20;82.20;;;;;;5009330;28;20057;-55
2021/04/17 07:27:41;;;;;;;20.48;4.70;;;8.20;81.60;;;;;;5008889;28;20076;-55
2021/04/17 07:30:28;;;;;;;16.35;4.30;;;8.10;81.80;;;;;;5005916;28;20124;-51
2021/04/17 07:33:14;;;;;;;17.70;4.30;;;8.40;79.90;;;;;;5009869;28;20049;-53
2021/04/17 07:35:45;;;;;;;15.90;3.63;;;8.50;79.80;;;;;;5010375;28;20061;-52
2021/04/17 07:38:20;;;;;;;13.57;3.95;;;8.40;78.70;;;;;;5006338;28;20038;-54
2021/04/17 07:40:59;;;;;;;14.68;3.72;;;8.50;78.90;;;;;;5007570;28;20045;-54
2021/04/17 07:43:49;;;;;;;13.65;4.05;;;8.60;76.50;;;;;;5008487;28;20414;-52
2021/04/17 07:46:16;;;;;;;16.50;3.67;;;8.70;78.20;;;;;;5008958;28;20038;-53
2021/04/17 07:48:43;;;;;;;16.73;4.28;;;8.80;79.50;;;;;;5008126;28;20038;-53
2021/04/17 07:51:09;;;;;;;12.48;4.20;;;8.90;78.60;;;;;;5010900;28;20380;-53
2021/04/17 07:53:38;;;;;;;16.73;3.80;;;9.00;76.80;;;;;;5010757;28;20052;-51
2021/04/17 07:56:34;;;;;;;14.30;3.50;;;9.10;75.90;;;;;;5011392;28;20089;-53
2021/04/17 07:59:05;;;;;;;14.73;3.78;;;9.30;74.40;;;;;;5003491;28;20449;-54
2021/04/17 08:01:32;;;;;;;13.25;3.70;;;9.40;73.30;;;;;;5000015;28;20054;-53
2021/04/17 08:04:00;;;;;;;11.95;3.42;;;9.30;74.10;;;;;;4973673;28;20049;-54
2021/04/17 08:06:27;;;;;;;17.70;3.88;;;9.30;74.20;;;;;;4981265;28;20041;-54
2021/04/17 08:08:55;;;;;;;11.10;4.03;;;9.40;74.80;;;;;;5009667;28;20042;-50
2021/04/17 08:11:24;;;;;;;14.15;3.22;;;9.50;72.30;;;;;;5006403;28;20034;-53
2021/04/17 08:13:51;;;;;;;16.00;3.92;;;9.70;69.50;;;;;;4971608;28;20049;-54
2021/04/17 08:16:18;;;;;;;14.30;3.80;;;9.80;70.00;;;;;;4973755;28;20477;-54
2021/04/17 08:18:45;;;;;;;14.93;3.65;;;9.80;69.20;;;;;;5001151;28;20095;-52
2021/04/17 08:21:17;;;;;;;14.02;3.85;;;9.90;69.50;;;;;;5008546;28;20046;-54
2021/04/17 08:23:46;;;;;;;16.13;3.58;;;10.00;70.20;;;;;;5009942;28;20049;-54
2021/04/17 08:26:13;;;;;;;15.23;3.92;;;10.00;71.00;;;;;;5005019;28;20042;-54
2021/04/17 08:28:44;;;;;;;14.55;3.85;;;10.10;69.80;;;;;;5005041;28;20387;-54
2021/04/17 08:31:31;;;;;;;12.68;3.85;;;10.10;68.60;;;;;;5007277;28;20034;-54
2021/04/17 08:34:09;;;;;;;15.25;3.58;;;10.30;68.10;;;;;;4998080;28;21254;-54
2021/04/17 08:36:51;;;;;;;11.95;3.85;;;10.40;67.40;;;;;;5000806;28;20414;-54
2021/04/17 08:39:41;;;;;;;9.20;3.28;;;10.40;66.40;;;;;;5000187;28;20038;-53
2021/04/17 08:42:16;;;;;;;14.88;3.90;;;10.50;67.00;;;;;;5008094;28;20121;-54
2021/04/17 08:44:46;;;;;;;13.70;3.72;;;10.60;66.50;;;;;;5011710;28;20421;-54
2021/04/17 08:47:33;;;;;;;11.45;3.88;;;10.60;66.80;;;;;;5001655;28;20507;-52
2021/04/17 08:50:29;;;;;;;16.75;3.92;;;10.70;64.60;;;;;;5004763;28;20454;-52
2021/04/17 08:53:13;;;;;;;18.00;3.92;;;10.60;65.50;;;;;;5009153;28;20486;-52
2021/04/17 08:55:39;;;;;;;12.85;3.75;;;10.80;62.90;;;;;;5011697;28;20046;-54
2021/04/17 08:58:14;;;;;;;9.35;3.45;;;10.80;64.60;;;;;;5010902;28;20068;-53
2021/04/17 09:00:50;;;;;;;10.88;3.80;;;10.90;63.30;;;;;;5011685;28;20049;-51
2021/04/17 09:03:45;;;;;;;12.02;3.70;;;10.90;64.40;;;;;;5004996;28;20050;-53
2021/04/17 09:06:23;;;;;;;12.63;3.85;;;11.00;62.70;;;;;;5009926;28;20046;-53
2021/04/17 09:11:44;;;;;;;14.60;3.75;;;11.10;63.00;;;;;;5010866;28;20148;-52
2021/04/17 09:17:00;;;;;;;9.85;3.40;;;11.10;62.20;;;;;;5006172;28;20038;-52
2021/04/17 09:19:41;;;;;;;11.93;4.10;;;11.30;62.30;;;;;;5005916;28;20046;-54
2021/04/17 09:22:30;;;;;;;17.55;3.63;;;11.40;60.50;;;;;;5010839;28;20485;-54
2021/04/17 09:25:35;;;;;;;13.45;3.70;;;11.30;60.80;;;;;;5011187;28;20046;-53
2021/04/17 09:28:02;;;;;;;12.98;3.90;;;11.30;59.90;;;;;;5010800;28;20046;-53
2021/04/17 09:30:28;;;;;;;10.68;3.42;;;11.30;61.20;;;;;;5010705;28;20041;-53
2021/04/17 09:32:56;;;;;;;11.65;3.63;;;11.30;60.30;;;;;;5009462;28;20077;-51
2021/04/17 09:35:36;;;;;;;12.82;3.55;;;11.20;59.90;;;;;;4999387;28;20046;-52
2021/04/17 09:38:09;;;;;;;9.55;3.40;;;11.20;57.90;;;;;;5010427;28;20042;-53
2021/04/17 09:40:37;;;;;;;11.68;3.50;;;11.20;59.30;;;;;;5005898;28;20038;-50
2021/04/17 09:43:05;;;;;;;12.40;3.25;;;11.50;58.40;;;;;;5011284;28;20046;-52
2021/04/17 09:45:39;;;;;;;10.90;3.30;;;11.60;57.10;;;;;;5010613;28;20046;-53
2021/04/17 09:48:09;;;;;;;9.40;4.15;;;11.60;56.40;;;;;;4996967;28;20042;-53
2021/04/17 09:50:37;;;;;;;8.38;3.63;;;11.50;57.10;;;;;;5010855;28;20494;-53
2021/04/17 09:53:28;;;;;;;9.38;3.72;;;11.30;56.90;;;;;;5010840;28;20076;-54
2021/04/17 09:55:55;;;;;;;12.13;3.72;;;11.30;57.00;;;;;;5008312;28;20521;-53
2021/04/17 09:58:27;;;;;;;8.85;3.63;;;11.40;57.50;;;;;;5010515;28;20038;-53
2021/04/17 10:00:53;;;;;;;7.28;3.38;;;11.60;57.10;;;;;;5010635;28;20045;-53
2021/04/17 10:03:31;;;;;;;9.77;3.30;;;11.80;55.10;;;;;;5007265;28;20031;-50
2021/04/17 10:05:58;;;;;;;9.38;3.53;;;12.00;55.20;;;;;;5002912;28;20136;-53
2021/04/17 10:08:28;;;;;;;11.20;3.22;;;12.10;55.60;;;;;;5010604;28;20038;-52
2021/04/17 10:10:54;;;;;;;10.43;3.78;;;12.20;53.80;;;;;;5010319;28;20390;-51
2021/04/17 10:13:37;;;;;;;9.68;3.50;;;12.30;51.60;;;;;;5010231;28;20045;-53
2021/04/17 10:16:02;;;;;;;;;;;12.30;51.30;;;;;;5010782;28;20045;-53
2021/04/17 10:18:28;;;;;;;14.20;3.50;;;12.30;53.40;;;;;;5012987;28;20040;-50
2021/04/17 10:20:54;;;;;;;7.95;2.92;;;12.40;52.10;;;;;;5014612;28;20033;-52
2021/04/17 10:23:19;;;;;;;7.20;3.15;;;12.40;49.50;;;;;;5014360;28;20109;-52
2021/04/17 10:25:46;;;;;;;9.32;3.20;;;12.20;49.90;;;;;;5012892;28;20037;-52
2021/04/17 10:28:23;;;;;;;7.75;3.22;;;12.00;50.60;;;;;;5002069;28;20050;-52
2021/04/17 10:31:12;;;;;;;10.20;2.88;;;12.10;49.40;;;;;;5001939;28;20089;-53
2021/04/17 10:33:46;;;;;;;9.20;2.90;;;12.10;51.40;;;;;;5014117;28;20093;-50
2021/04/17 10:36:22;;;;;;;7.40;3.33;;;12.20;50.60;;;;;;5012851;28;20037;-52
2021/04/17 10:38:51;;;;;;;8.38;2.90;;;12.10;50.10;;;;;;5012975;28;20050;-54
2021/04/17 10:41:28;;;;;;;9.80;3.22;;;12.10;49.00;;;;;;5008796;28;20418;-54
2021/04/17 10:44:26;;;;;;;8.45;3.22;;;12.30;49.60;;;;;;5010731;28;20057;-52
2021/04/17 10:46:51;;;;;;;7.55;3.20;;;12.40;48.80;;;;;;5007629;28;20053;-53
2021/04/17 10:49:29;;;;;;;8.18;2.97;;;12.50;49.20;;;;;;5007247;28;20035;-54
2021/04/17 10:51:56;;;;;;;8.18;2.92;;;12.50;51.30;;;;;;5009925;28;20404;-53
2021/04/17 10:54:22;;;;;;;5.60;2.97;;;12.50;51.00;;;;;;5011971;28;20521;-52
2021/04/17 10:57:06;;;;;;;7.65;3.28;;;12.50;50.00;;;;;;5010305;28;20045;-51
2021/04/17 10:59:55;;;;;;;8.75;3.20;;;12.60;48.60;;;;;;5007673;28;20125;-54
2021/04/17 11:02:32;;;;;;;7.65;2.95;;;12.70;49.80;;;;;;4998249;28;20042;-55
2021/04/17 11:04:59;;;;;;;7.78;3.25;;;12.80;50.30;;;;;;5011967;28;20049;-52
2021/04/17 11:07:33;;;;;;;8.30;3.17;;;12.80;49.90;;;;;;5013002;28;20045;-50
2021/04/17 11:10:00;;;;;;;8.10;3.03;;;12.70;51.00;;;;;;5013614;28;20741;-54
2021/04/17 11:12:31;;;;;;;9.82;3.15;;;12.80;49.90;;;;;;5044490;22;20057;-49
2021/04/17 11:15:12;;;;;;;8.00;3.72;;;12.70;51.20;;;;;;5053585;28;20049;-51
2021/04/17 11:17:38;;;;;;;7.95;3.00;;;12.70;49.20;;;;;;5054547;28;20049;-51
2021/04/17 11:20:19;;;;;;;7.70;2.85;;;12.60;48.60;;;;;;5056091;28;20142;-51
2021/04/17 11:22:44;;;;;;;7.60;2.95;;;12.60;48.10;;;;;;5037687;28;20041;-49
2021/04/17 11:25:11;;;;;;;10.50;2.85;;;12.50;48.40;;;;;;5050472;28;20136;-49
2021/04/17 11:27:37;;;;;;;5.72;2.75;;;12.50;48.20;;;;;;5040583;28;20053;-50
2021/04/17 11:30:08;;;;;;;8.05;2.67;;;12.60;48.70;;;;;;5054936;28;20044;-53
2021/04/17 11:32:36;;;;;;;8.82;3.25;;;12.60;49.40;;;;;;5041135;28;20083;-52
2021/04/17 11:35:07;;;;;;;7.43;2.78;;;12.70;48.00;;;;;;5044108;28;20079;-50
2021/04/17 11:37:33;;;;;;;4.60;2.53;;;12.70;48.10;;;;;;5047114;28;20577;-53
2021/04/17 11:39:58;;;;;;;7.05;2.63;;;12.70;47.40;;;;;;5053549;28;20120;-52
2021/04/17 11:42:25;;;;;;;12.50;3.13;;;12.60;45.90;;;;;;5051380;28;20071;-49
2021/04/17 11:44:52;;;;;;;5.97;2.95;;;12.70;47.10;;;;;;5048140;28;20486;-48
2021/04/17 11:47:19;;;;;;;7.20;2.72;;;12.70;47.70;;;;;;5052022;28;20141;-52
2021/04/17 11:49:44;;;;;;;9.73;3.25;;;12.90;46.40;;;;;;5058680;28;20037;-50
2021/04/17 11:52:10;;;;;;;9.25;2.88;;;12.80;47.50;;;;;;5054630;28;20045;-49
2021/04/17 11:54:36;;;;;;;9.35;2.67;;;12.80;46.00;;;;;;5046904;28;20098;-49
2021/04/17 11:57:02;;;;;;;10.05;3.13;;;12.80;45.10;;;;;;5052181;28;20041;-52
2021/04/17 11:59:28;;;;;;;7.90;2.90;;;12.70;46.10;;;;;;5049882;28;20113;-52
2021/04/17 12:01:54;;;;;;;6.95;2.85;;;12.70;45.70;;;;;;5053234;28;20064;-53
2021/04/17 12:04:19;;;;;;;7.97;2.33;;;12.80;46.30;;;;;;5054060;28;20153;-49
2021/04/17 12:06:50;;;;;;;8.75;2.50;;;13.20;44.70;;;;;;5052624;28;20195;-49
2021/04/17 12:09:16;;;;;;;7.95;2.58;;;13.20;44.30;;;;;;5053902;28;20048;-53
2021/04/17 12:11:42;;;;;;;7.63;2.60;;;13.20;43.40;;;;;;5053236;28;20075;-49
2021/04/17 12:14:08;;;;;;;6.13;2.58;;;13.00;44.50;;;;;;5054224;28;20060;-47
2021/04/17 12:16:34;;;;;;;8.45;2.78;;;12.90;45.00;;;;;;5052124;28;20033;-50
2021/04/17 12:18:59;;;;;;;6.88;2.60;;;12.90;45.60;;;;;;5054292;28;20033;-51
2021/04/17 12:21:25;;;;;;;8.75;2.78;;;13.10;46.20;;;;;;5040703;28;20382;-48
2021/04/17 12:23:52;;;;;;;4.60;2.35;;;13.30;44.00;;;;;;5053059;28;20041;-50
2021/04/17 12:26:18;;;;;;;8.82;2.85;;;13.30;42.20;;;;;;5053373;28;20449;-48
2021/04/17 12:28:43;;;;;;;6.93;2.47;;;13.30;43.30;;;;;;5057771;28;20075;-47
2021/04/17 12:31:09;;;;;;;8.20;2.72;;;13.30;43.20;;;;;;5051175;28;20451;-49
2021/04/17 12:33:35;;;;;;;7.03;3.00;;;13.30;44.80;;;;;;5049514;28;20037;-47
2021/04/17 12:36:01;;;;;;;6.28;2.78;;;13.40;42.90;;;;;;5039132;28;20521;-47
2021/04/17 12:38:27;;;;;;;6.57;2.40;;;13.50;42.90;;;;;;5045273;28;20041;-47
2021/04/17 12:40:55;;;;;;;7.68;2.67;;;13.50;42.70;;;;;;5052173;28;20416;-46
2021/04/17 12:43:21;;;;;;;7.25;2.70;;;13.60;43.70;;;;;;5052939;28;20045;-48
2021/04/17 12:45:46;;;;;;;8.85;2.83;;;13.40;43.00;;;;;;5050266;28;20128;-47
2021/04/17 12:48:14;;;;;;;9.27;2.42;;;13.40;43.20;;;;;;5041148;28;20128;-46
2021/04/17 12:50:40;;;;;;;5.55;2.72;;;13.50;42.70;;;;;;5047595;28;20151;-46
2021/04/17 12:53:06;;;;;;;7.63;2.40;;;13.50;43.00;;;;;;5052644;28;20045;-48
2021/04/17 12:55:31;;;;;;;6.40;2.25;;;13.60;43.90;;;;;;5048879;28;20037;-47
2021/04/17 12:57:57;;;;;;;5.82;2.30;;;13.60;43.20;;;;;;5050783;28;20033;-47
2021/04/17 13:00:23;;;;;;;8.27;2.58;;;13.60;42.20;;;;;;5044101;28;20171;-46